sensor_id;sensor_type;location;lat;lon;timestamp;temperature;humidity
18741;DHT22;9499;52.472;13.448;2023-04-24T00:01:17;13.10;1.00
18741;DHT22;9499;52.472;13.448;2023-04-24T00:03:44;13.10;1.00
18741;DHT22;9499;52.472;13.448;2023-04-24T00:06:11;13.10;1.00
18741;DHT22;9499;52.472;13.448;2023-04-24T00:08:38;13.10;1.00
18741;DHT22;9499;52.472;13.448;2023-04-24T00:11:04;13.00;1.00
18741;DHT22;9499;52.472;13.448;2023-04-24T00:13:32;13.00;1.00
18741;DHT22;9499;52.472;13.448;2023-04-24T00:15:59;13.00;1.00
18741;DHT22;9499;52.472;13.448;2023-04-24T00:18:25;13.00;1.00
18741;DHT22;9499;52.472;13.448;2023-04-24T00:20:52;12.90;1.00
18741;DHT22;9499;52.472;13.448;2023-04-24T00:23:19;12.90;1.00
18741;DHT22;9499;52.472;13.448;2023-04-24T00:25:45;12.90;1.00
18741;DHT22;9499;52.472;13.448;2023-04-24T00:28:12;12.90;1.00
18741;DHT22;9499;52.472;13.448;2023-04-24T00:30:40;12.90;1.00
18741;DHT22;9499;52.472;13.448;2023-04-24T00:33:06;12.90;1.00
18741;DHT22;9499;52.472;13.448;2023-04-24T00:35:33;12.90;1.00
18741;DHT22;9499;52.472;13.448;2023-04-24T00:37:59;12.90;1.00
18741;DHT22;9499;52.472;13.448;2023-04-24T00:40:27;12.90;1.00
18741;DHT22;9499;52.472;13.448;2023-04-24T00:42:53;12.80;1.00
18741;DHT22;9499;52.472;13.448;2023-04-24T00:45:21;12.80;1.00
18741;DHT22;9499;52.472;13.448;2023-04-24T00:47:49;12.80;1.00
18741;DHT22;9499;52.472;13.448;2023-04-24T00:50:16;12.80;1.00
18741;DHT22;9499;52.472;13.448;2023-04-24T00:52:44;12.80;1.00
18741;DHT22;9499;52.472;13.448;2023-04-24T00:55:11;12.80;1.00
18741;DHT22;9499;52.472;13.448;2023-04-24T00:57:37;12.70;1.00
18741;DHT22;9499;52.472;13.448;2023-04-24T01:00:06;12.70;1.00
18741;DHT22;9499;52.472;13.448;2023-04-24T01:02:37;12.70;1.00
18741;DHT22;9499;52.472;13.448;2023-04-24T01:05:07;12.70;1.00
18741;DHT22;9499;52.472;13.448;2023-04-24T01:07:34;12.70;1.00
18741;DHT22;9499;52.472;13.448;2023-04-24T01:10:02;12.70;1.00
18741;DHT22;9499;52.472;13.448;2023-04-24T01:12:28;12.60;1.00
18741;DHT22;9499;52.472;13.448;2023-04-24T01:14:56;12.60;1.00
18741;DHT22;9499;52.472;13.448;2023-04-24T01:17:22;12.60;1.00
18741;DHT22;9499;52.472;13.448;2023-04-24T01:19:49;12.60;1.00
18741;DHT22;9499;52.472;13.448;2023-04-24T01:22:20;12.60;1.00
18741;DHT22;9499;52.472;13.448;2023-04-24T01:24:47;12.50;1.00
18741;DHT22;9499;52.472;13.448;2023-04-24T01:27:13;12.50;1.00
18741;DHT22;9499;52.472;13.448;2023-04-24T01:29:40;12.50;1.00
18741;DHT22;9499;52.472;13.448;2023-04-24T01:32:07;12.50;1.00
18741;DHT22;9499;52.472;13.448;2023-04-24T01:34:34;12.50;1.00
18741;DHT22;9499;52.472;13.448;2023-04-24T01:37:00;12.50;1.00
18741;DHT22;9499;52.472;13.448;2023-04-24T01:39:28;12.50;1.00
18741;DHT22;9499;52.472;13.448;2023-04-24T01:41:55;12.50;1.00
18741;DHT22;9499;52.472;13.448;2023-04-24T01:44:23;12.50;1.00
18741;DHT22;9499;52.472;13.448;2023-04-24T01:46:49;12.50;1.00
18741;DHT22;9499;52.472;13.448;2023-04-24T01:49:16;12.50;1.00
18741;DHT22;9499;52.472;13.448;2023-04-24T01:51:42;12.50;1.00
18741;DHT22;9499;52.472;13.448;2023-04-24T01:54:09;12.50;1.00
18741;DHT22;9499;52.472;13.448;2023-04-24T01:56:40;12.40;1.00
18741;DHT22;9499;52.472;13.448;2023-04-24T01:59:07;12.40;1.00
18741;DHT22;9499;52.472;13.448;2023-04-24T02:01:36;12.30;1.00
18741;DHT22;9499;52.472;13.448;2023-04-24T02:04:03;12.30;1.00
18741;DHT22;9499;52.472;13.448;2023-04-24T02:06:30;12.30;3.40
18741;DHT22;9499;52.472;13.448;2023-04-24T02:08:57;12.30;4.90
18741;DHT22;9499;52.472;13.448;2023-04-24T02:11:24;12.30;10.00
18741;DHT22;9499;52.472;13.448;2023-04-24T02:13:53;12.30;12.00
18741;DHT22;9499;52.472;13.448;2023-04-24T02:16:20;12.40;13.60
18741;DHT22;9499;52.472;13.448;2023-04-24T02:18:46;12.40;16.90
18741;DHT22;9499;52.472;13.448;2023-04-24T02:21:13;12.40;20.30
18741;DHT22;9499;52.472;13.448;2023-04-24T02:23:39;12.40;23.60
18741;DHT22;9499;52.472;13.448;2023-04-24T02:26:06;12.40;20.70
18741;DHT22;9499;52.472;13.448;2023-04-24T02:28:33;12.40;23.30
18741;DHT22;9499;52.472;13.448;2023-04-24T02:31:00;12.50;21.20
18741;DHT22;9499;52.472;13.448;2023-04-24T02:33:27;12.50;24.80
18741;DHT22;9499;52.472;13.448;2023-04-24T02:35:54;12.50;25.90
18741;DHT22;9499;52.472;13.448;2023-04-24T02:38:20;12.50;28.10
18741;DHT22;9499;52.472;13.448;2023-04-24T02:40:47;12.40;27.60
18741;DHT22;9499;52.472;13.448;2023-04-24T02:43:13;12.40;32.70
18741;DHT22;9499;52.472;13.448;2023-04-24T02:45:40;12.50;35.30
18741;DHT22;9499;52.472;13.448;2023-04-24T02:48:08;12.40;36.80
18741;DHT22;9499;52.472;13.448;2023-04-24T02:50:34;12.40;36.00
18741;DHT22;9499;52.472;13.448;2023-04-24T02:53:01;12.40;46.20
18741;DHT22;9499;52.472;13.448;2023-04-24T02:55:27;12.50;45.30
18741;DHT22;9499;52.472;13.448;2023-04-24T02:57:54;12.50;46.00
18741;DHT22;9499;52.472;13.448;2023-04-24T03:00:21;12.50;42.20
18741;DHT22;9499;52.472;13.448;2023-04-24T03:02:47;12.50;50.00
18741;DHT22;9499;52.472;13.448;2023-04-24T03:05:16;12.50;50.00
18741;DHT22;9499;52.472;13.448;2023-04-24T03:07:42;12.50;48.90
18741;DHT22;9499;52.472;13.448;2023-04-24T03:10:09;12.50;52.80
18741;DHT22;9499;52.472;13.448;2023-04-24T03:12:36;12.50;52.60
18741;DHT22;9499;52.472;13.448;2023-04-24T03:15:03;12.50;57.30
18741;DHT22;9499;52.472;13.448;2023-04-24T03:17:30;12.50;60.20
18741;DHT22;9499;52.472;13.448;2023-04-24T03:19:56;12.50;57.50
18741;DHT22;9499;52.472;13.448;2023-04-24T03:22:24;12.50;52.60
18741;DHT22;9499;52.472;13.448;2023-04-24T03:24:51;12.50;54.90
18741;DHT22;9499;52.472;13.448;2023-04-24T03:27:18;12.50;57.50
18741;DHT22;9499;52.472;13.448;2023-04-24T03:29:44;12.50;58.00
18741;DHT22;9499;52.472;13.448;2023-04-24T03:32:11;12.50;64.30
18741;DHT22;9499;52.472;13.448;2023-04-24T03:34:37;12.50;65.70
18741;DHT22;9499;52.472;13.448;2023-04-24T03:37:04;12.50;63.70
18741;DHT22;9499;52.472;13.448;2023-04-24T03:39:31;12.50;59.80
18741;DHT22;9499;52.472;13.448;2023-04-24T03:41:58;12.50;52.20
18741;DHT22;9499;52.472;13.448;2023-04-24T03:44:25;12.60;46.60
18741;DHT22;9499;52.472;13.448;2023-04-24T03:46:52;12.60;48.00
18741;DHT22;9499;52.472;13.448;2023-04-24T03:49:18;12.60;46.60
18741;DHT22;9499;52.472;13.448;2023-04-24T03:51:45;12.60;42.80
18741;DHT22;9499;52.472;13.448;2023-04-24T03:54:12;12.60;43.90
18741;DHT22;9499;52.472;13.448;2023-04-24T03:56:40;12.60;41.40
18741;DHT22;9499;52.472;13.448;2023-04-24T03:59:06;12.60;41.70
18741;DHT22;9499;52.472;13.448;2023-04-24T04:01:33;12.60;41.70
18741;DHT22;9499;52.472;13.448;2023-04-24T04:04:02;12.70;34.50
18741;DHT22;9499;52.472;13.448;2023-04-24T04:06:28;12.70;32.60
18741;DHT22;9499;52.472;13.448;2023-04-24T04:08:56;12.70;30.60
18741;DHT22;9499;52.472;13.448;2023-04-24T04:11:22;12.70;30.00
18741;DHT22;9499;52.472;13.448;2023-04-24T04:13:50;12.70;33.60
18741;DHT22;9499;52.472;13.448;2023-04-24T04:16:17;12.70;26.80
18741;DHT22;9499;52.472;13.448;2023-04-24T04:18:43;12.70;24.50
18741;DHT22;9499;52.472;13.448;2023-04-24T04:21:10;12.70;23.30
18741;DHT22;9499;52.472;13.448;2023-04-24T04:23:37;12.70;26.60
18741;DHT22;9499;52.472;13.448;2023-04-24T04:26:03;12.70;23.90
18741;DHT22;9499;52.472;13.448;2023-04-24T04:28:30;12.70;26.60
18741;DHT22;9499;52.472;13.448;2023-04-24T04:30:59;12.80;24.30
18741;DHT22;9499;52.472;13.448;2023-04-24T04:33:26;12.80;22.10
18741;DHT22;9499;52.472;13.448;2023-04-24T04:35:52;12.80;23.00
18741;DHT22;9499;52.472;13.448;2023-04-24T04:38:22;12.80;23.00
18741;DHT22;9499;52.472;13.448;2023-04-24T04:40:48;12.80;23.40
18741;DHT22;9499;52.472;13.448;2023-04-24T04:43:15;12.80;24.80
18741;DHT22;9499;52.472;13.448;2023-04-24T04:45:41;12.80;19.30
18741;DHT22;9499;52.472;13.448;2023-04-24T04:48:10;12.80;17.70
18741;DHT22;9499;52.472;13.448;2023-04-24T04:50:38;12.80;22.00
18741;DHT22;9499;52.472;13.448;2023-04-24T04:53:05;12.80;24.00
18741;DHT22;9499;52.472;13.448;2023-04-24T04:55:32;12.80;25.40
18741;DHT22;9499;52.472;13.448;2023-04-24T04:57:59;12.80;26.00
18741;DHT22;9499;52.472;13.448;2023-04-24T05:00:26;12.80;27.60
18741;DHT22;9499;52.472;13.448;2023-04-24T05:02:54;12.90;20.10
18741;DHT22;9499;52.472;13.448;2023-04-24T05:05:22;12.90;18.70
18741;DHT22;9499;52.472;13.448;2023-04-24T05:07:49;12.80;19.50
18741;DHT22;9499;52.472;13.448;2023-04-24T05:10:15;12.80;17.70
18741;DHT22;9499;52.472;13.448;2023-04-24T05:12:42;12.80;18.00
18741;DHT22;9499;52.472;13.448;2023-04-24T05:15:09;12.80;12.70
18741;DHT22;9499;52.472;13.448;2023-04-24T05:17:35;12.80;13.10
18741;DHT22;9499;52.472;13.448;2023-04-24T05:20:03;12.80;14.10
18741;DHT22;9499;52.472;13.448;2023-04-24T05:22:31;12.80;9.20
18741;DHT22;9499;52.472;13.448;2023-04-24T05:24:58;12.80;5.90
18741;DHT22;9499;52.472;13.448;2023-04-24T05:27:25;12.80;4.70
18741;DHT22;9499;52.472;13.448;2023-04-24T05:29:51;12.80;1.00
18741;DHT22;9499;52.472;13.448;2023-04-24T05:32:18;12.80;1.00
18741;DHT22;9499;52.472;13.448;2023-04-24T05:34:44;12.90;1.00
18741;DHT22;9499;52.472;13.448;2023-04-24T05:37:11;12.80;1.00
18741;DHT22;9499;52.472;13.448;2023-04-24T05:39:39;12.80;1.00
18741;DHT22;9499;52.472;13.448;2023-04-24T05:42:06;12.90;1.00
18741;DHT22;9499;52.472;13.448;2023-04-24T05:44:33;12.90;1.00
18741;DHT22;9499;52.472;13.448;2023-04-24T05:47:00;12.90;1.00
18741;DHT22;9499;52.472;13.448;2023-04-24T05:49:27;12.90;1.00
18741;DHT22;9499;52.472;13.448;2023-04-24T05:51:53;13.00;1.00
18741;DHT22;9499;52.472;13.448;2023-04-24T05:54:20;13.00;1.00
18741;DHT22;9499;52.472;13.448;2023-04-24T05:56:49;13.10;1.00
18741;DHT22;9499;52.472;13.448;2023-04-24T05:59:15;13.10;1.00
18741;DHT22;9499;52.472;13.448;2023-04-24T06:01:42;13.10;1.00
18741;DHT22;9499;52.472;13.448;2023-04-24T06:04:08;13.20;1.00
18741;DHT22;9499;52.472;13.448;2023-04-24T06:06:35;13.10;1.00
18741;DHT22;9499;52.472;13.448;2023-04-24T06:09:02;13.10;1.00
18741;DHT22;9499;52.472;13.448;2023-04-24T06:11:29;13.10;1.00
18741;DHT22;9499;52.472;13.448;2023-04-24T06:13:57;13.20;1.00
18741;DHT22;9499;52.472;13.448;2023-04-24T06:16:23;13.20;1.00
18741;DHT22;9499;52.472;13.448;2023-04-24T06:18:50;13.20;1.00
18741;DHT22;9499;52.472;13.448;2023-04-24T06:21:16;13.20;1.00
18741;DHT22;9499;52.472;13.448;2023-04-24T06:23:43;13.30;1.00
18741;DHT22;9499;52.472;13.448;2023-04-24T06:26:11;13.30;1.00
18741;DHT22;9499;52.472;13.448;2023-04-24T06:28:38;13.40;1.00
18741;DHT22;9499;52.472;13.448;2023-04-24T06:31:06;13.40;1.00
18741;DHT22;9499;52.472;13.448;2023-04-24T06:33:32;13.40;1.00
18741;DHT22;9499;52.472;13.448;2023-04-24T06:35:59;13.40;1.00
18741;DHT22;9499;52.472;13.448;2023-04-24T06:38:25;13.50;1.00
18741;DHT22;9499;52.472;13.448;2023-04-24T06:40:51;13.40;1.00
18741;DHT22;9499;52.472;13.448;2023-04-24T06:43:18;13.50;1.00
18741;DHT22;9499;52.472;13.448;2023-04-24T06:45:45;13.60;1.00
18741;DHT22;9499;52.472;13.448;2023-04-24T06:48:13;13.60;1.00
18741;DHT22;9499;52.472;13.448;2023-04-24T06:50:40;13.70;1.00
18741;DHT22;9499;52.472;13.448;2023-04-24T06:53:07;13.70;1.00
18741;DHT22;9499;52.472;13.448;2023-04-24T06:55:36;13.80;1.00
18741;DHT22;9499;52.472;13.448;2023-04-24T06:58:02;14.00;1.00
18741;DHT22;9499;52.472;13.448;2023-04-24T07:00:29;14.00;1.00
18741;DHT22;9499;52.472;13.448;2023-04-24T07:02:55;14.10;1.00
18741;DHT22;9499;52.472;13.448;2023-04-24T07:05:24;14.20;99.90
18741;DHT22;9499;52.472;13.448;2023-04-24T07:07:50;14.30;99.90
18741;DHT22;9499;52.472;13.448;2023-04-24T07:10:17;14.30;99.90
18741;DHT22;9499;52.472;13.448;2023-04-24T07:12:45;14.40;99.90
18741;DHT22;9499;52.472;13.448;2023-04-24T07:15:12;14.50;48.20
18741;DHT22;9499;52.472;13.448;2023-04-24T07:17:38;14.50;1.00
18741;DHT22;9499;52.472;13.448;2023-04-24T07:20:09;14.50;1.00
18741;DHT22;9499;52.472;13.448;2023-04-24T07:22:38;14.50;1.00
18741;DHT22;9499;52.472;13.448;2023-04-24T07:25:06;14.70;1.00
18741;DHT22;9499;52.472;13.448;2023-04-24T07:27:34;14.80;1.00
18741;DHT22;9499;52.472;13.448;2023-04-24T07:30:01;14.90;99.90
18741;DHT22;9499;52.472;13.448;2023-04-24T07:32:27;14.90;99.90
18741;DHT22;9499;52.472;13.448;2023-04-24T07:34:54;14.90;48.00
18741;DHT22;9499;52.472;13.448;2023-04-24T07:37:20;14.90;1.00
18741;DHT22;9499;52.472;13.448;2023-04-24T07:39:48;14.90;1.00
18741;DHT22;9499;52.472;13.448;2023-04-24T07:42:15;14.90;1.00
18741;DHT22;9499;52.472;13.448;2023-04-24T07:44:42;14.90;1.00
18741;DHT22;9499;52.472;13.448;2023-04-24T07:47:08;15.00;1.00
18741;DHT22;9499;52.472;13.448;2023-04-24T07:49:35;15.00;1.00
18741;DHT22;9499;52.472;13.448;2023-04-24T07:52:01;15.10;1.00
18741;DHT22;9499;52.472;13.448;2023-04-24T07:54:28;15.10;1.00
18741;DHT22;9499;52.472;13.448;2023-04-24T07:56:56;15.20;1.00
18741;DHT22;9499;52.472;13.448;2023-04-24T07:59:22;15.30;28.90
18741;DHT22;9499;52.472;13.448;2023-04-24T08:01:49;15.40;1.00
18741;DHT22;9499;52.472;13.448;2023-04-24T08:04:15;15.50;99.90
18741;DHT22;9499;52.472;13.448;2023-04-24T08:06:43;15.50;1.00
18741;DHT22;9499;52.472;13.448;2023-04-24T08:09:10;15.50;1.00
18741;DHT22;9499;52.472;13.448;2023-04-24T08:11:36;15.50;99.90
18741;DHT22;9499;52.472;13.448;2023-04-24T08:14:04;15.70;1.00
18741;DHT22;9499;52.472;13.448;2023-04-24T08:16:32;15.70;1.00
18741;DHT22;9499;52.472;13.448;2023-04-24T08:18:59;15.70;1.00
18741;DHT22;9499;52.472;13.448;2023-04-24T08:21:25;15.80;99.90
18741;DHT22;9499;52.472;13.448;2023-04-24T08:23:52;15.70;99.90
18741;DHT22;9499;52.472;13.448;2023-04-24T08:26:19;15.70;99.90
18741;DHT22;9499;52.472;13.448;2023-04-24T08:28:45;15.70;1.00
18741;DHT22;9499;52.472;13.448;2023-04-24T08:31:13;15.80;1.00
18741;DHT22;9499;52.472;13.448;2023-04-24T08:33:39;15.80;99.90
18741;DHT22;9499;52.472;13.448;2023-04-24T08:36:07;16.00;99.90
18741;DHT22;9499;52.472;13.448;2023-04-24T08:38:34;16.00;1.00
18741;DHT22;9499;52.472;13.448;2023-04-24T08:41:01;16.10;99.90
18741;DHT22;9499;52.472;13.448;2023-04-24T08:43:28;16.10;99.90
18741;DHT22;9499;52.472;13.448;2023-04-24T08:45:56;16.10;99.90
18741;DHT22;9499;52.472;13.448;2023-04-24T08:48:24;16.20;99.90
18741;DHT22;9499;52.472;13.448;2023-04-24T08:50:51;16.20;1.00
18741;DHT22;9499;52.472;13.448;2023-04-24T08:53:18;16.30;1.00
18741;DHT22;9499;52.472;13.448;2023-04-24T08:55:47;16.30;1.00
18741;DHT22;9499;52.472;13.448;2023-04-24T08:58:16;16.40;99.90
18741;DHT22;9499;52.472;13.448;2023-04-24T09:00:43;16.50;99.90
18741;DHT22;9499;52.472;13.448;2023-04-24T09:03:13;16.60;1.00
18741;DHT22;9499;52.472;13.448;2023-04-24T09:05:42;16.60;1.00
18741;DHT22;9499;52.472;13.448;2023-04-24T09:08:11;16.60;1.00
18741;DHT22;9499;52.472;13.448;2023-04-24T09:10:39;16.70;1.00
18741;DHT22;9499;52.472;13.448;2023-04-24T09:13:06;16.70;1.00
18741;DHT22;9499;52.472;13.448;2023-04-24T09:15:34;16.70;1.00
18741;DHT22;9499;52.472;13.448;2023-04-24T09:18:01;16.60;1.00
18741;DHT22;9499;52.472;13.448;2023-04-24T09:20:28;16.60;99.90
18741;DHT22;9499;52.472;13.448;2023-04-24T09:22:56;16.60;99.90
18741;DHT22;9499;52.472;13.448;2023-04-24T09:25:30;16.60;1.00
18741;DHT22;9499;52.472;13.448;2023-04-24T09:28:00;16.50;1.00
18741;DHT22;9499;52.472;13.448;2023-04-24T09:30:27;16.50;1.00
18741;DHT22;9499;52.472;13.448;2023-04-24T09:33:12;16.40;1.00
18741;DHT22;9499;52.472;13.448;2023-04-24T09:35:41;16.40;81.20
18741;DHT22;9499;52.472;13.448;2023-04-24T09:38:09;16.40;17.80
18741;DHT22;9499;52.472;13.448;2023-04-24T09:40:36;16.30;1.00
18741;DHT22;9499;52.472;13.448;2023-04-24T09:43:03;16.30;99.90
18741;DHT22;9499;52.472;13.448;2023-04-24T09:45:35;16.30;99.90
18741;DHT22;9499;52.472;13.448;2023-04-24T09:48:02;16.30;1.00
18741;DHT22;9499;52.472;13.448;2023-04-24T09:50:31;16.40;1.00
18741;DHT22;9499;52.472;13.448;2023-04-24T09:53:02;16.40;17.70
18741;DHT22;9499;52.472;13.448;2023-04-24T09:55:30;16.40;1.00
18741;DHT22;9499;52.472;13.448;2023-04-24T09:57:58;16.50;99.90
18741;DHT22;9499;52.472;13.448;2023-04-24T10:00:26;16.60;1.00
18741;DHT22;9499;52.472;13.448;2023-04-24T10:02:57;16.60;99.90
18741;DHT22;9499;52.472;13.448;2023-04-24T10:05:26;16.60;1.00
18741;DHT22;9499;52.472;13.448;2023-04-24T10:07:56;16.60;1.00
18741;DHT22;9499;52.472;13.448;2023-04-24T10:10:23;16.70;1.00
18741;DHT22;9499;52.472;13.448;2023-04-24T10:12:52;16.80;99.90
18741;DHT22;9499;52.472;13.448;2023-04-24T10:15:20;16.90;99.90
18741;DHT22;9499;52.472;13.448;2023-04-24T10:17:48;17.10;99.90
18741;DHT22;9499;52.472;13.448;2023-04-24T10:20:18;17.30;7.60
18741;DHT22;9499;52.472;13.448;2023-04-24T10:22:47;17.40;1.00
18741;DHT22;9499;52.472;13.448;2023-04-24T10:25:16;17.50;1.00
18741;DHT22;9499;52.472;13.448;2023-04-24T10:27:43;17.70;99.90
18741;DHT22;9499;52.472;13.448;2023-04-24T10:30:12;17.50;99.90
18741;DHT22;9499;52.472;13.448;2023-04-24T10:32:39;17.40;99.90
18741;DHT22;9499;52.472;13.448;2023-04-24T10:35:07;17.30;99.90
18741;DHT22;9499;52.472;13.448;2023-04-24T10:37:36;17.40;99.90
18741;DHT22;9499;52.472;13.448;2023-04-24T10:40:03;17.40;80.20
18741;DHT22;9499;52.472;13.448;2023-04-24T10:42:30;17.30;1.00
18741;DHT22;9499;52.472;13.448;2023-04-24T10:44:57;17.20;1.00
18741;DHT22;9499;52.472;13.448;2023-04-24T10:47:25;17.10;1.00
18741;DHT22;9499;52.472;13.448;2023-04-24T10:49:51;17.10;1.00
18741;DHT22;9499;52.472;13.448;2023-04-24T10:52:18;16.90;18.40
18741;DHT22;9499;52.472;13.448;2023-04-24T10:54:47;16.90;93.70
18741;DHT22;9499;52.472;13.448;2023-04-24T10:57:28;16.90;99.90
18741;DHT22;9499;52.472;13.448;2023-04-24T11:00:13;16.90;1.00
18741;DHT22;9499;52.472;13.448;2023-04-24T11:02:42;17.00;1.00
18741;DHT22;9499;52.472;13.448;2023-04-24T11:05:15;16.90;1.00
18741;DHT22;9499;52.472;13.448;2023-04-24T11:08:12;16.90;1.00
18741;DHT22;9499;52.472;13.448;2023-04-24T11:10:40;17.10;1.00
18741;DHT22;9499;52.472;13.448;2023-04-24T11:13:07;17.20;1.00
18741;DHT22;9499;52.472;13.448;2023-04-24T11:15:34;17.60;99.90
18741;DHT22;9499;52.472;13.448;2023-04-24T11:18:02;18.00;99.90
18741;DHT22;9499;52.472;13.448;2023-04-24T11:20:29;18.50;1.00
18741;DHT22;9499;52.472;13.448;2023-04-24T11:22:57;18.40;1.00
18741;DHT22;9499;52.472;13.448;2023-04-24T11:25:30;18.30;1.00
18741;DHT22;9499;52.472;13.448;2023-04-24T11:28:03;18.10;1.00
18741;DHT22;9499;52.472;13.448;2023-04-24T11:30:31;17.80;1.00
18741;DHT22;9499;52.472;13.448;2023-04-24T11:33:04;17.60;1.00
18741;DHT22;9499;52.472;13.448;2023-04-24T11:35:35;17.30;4.50
18741;DHT22;9499;52.472;13.448;2023-04-24T11:38:03;16.80;1.00
18741;DHT22;9499;52.472;13.448;2023-04-24T11:40:30;16.10;1.00
18741;DHT22;9499;52.472;13.448;2023-04-24T11:42:59;15.40;1.00
18741;DHT22;9499;52.472;13.448;2023-04-24T11:45:27;15.00;1.00
18741;DHT22;9499;52.472;13.448;2023-04-24T11:47:54;14.70;13.50
18741;DHT22;9499;52.472;13.448;2023-04-24T11:50:24;14.80;99.90
18741;DHT22;9499;52.472;13.448;2023-04-24T11:52:53;15.20;99.90
18741;DHT22;9499;52.472;13.448;2023-04-24T11:55:27;15.60;99.90
18741;DHT22;9499;52.472;13.448;2023-04-24T11:57:55;16.10;69.20
18741;DHT22;9499;52.472;13.448;2023-04-24T12:00:24;16.60;1.00
18741;DHT22;9499;52.472;13.448;2023-04-24T12:02:51;17.00;1.00
18741;DHT22;9499;52.472;13.448;2023-04-24T12:05:23;17.50;1.00
18741;DHT22;9499;52.472;13.448;2023-04-24T12:07:51;17.80;99.90
18741;DHT22;9499;52.472;13.448;2023-04-24T12:10:20;18.00;99.90
18741;DHT22;9499;52.472;13.448;2023-04-24T12:12:46;18.10;1.00
18741;DHT22;9499;52.472;13.448;2023-04-24T12:15:16;18.10;99.90
18741;DHT22;9499;52.472;13.448;2023-04-24T12:17:43;18.10;99.90
18741;DHT22;9499;52.472;13.448;2023-04-24T12:20:10;18.00;1.00
18741;DHT22;9499;52.472;13.448;2023-04-24T12:22:46;17.80;1.00
18741;DHT22;9499;52.472;13.448;2023-04-24T12:25:13;18.10;99.90
18741;DHT22;9499;52.472;13.448;2023-04-24T12:27:40;18.40;1.00
18741;DHT22;9499;52.472;13.448;2023-04-24T12:30:12;18.60;1.00
18741;DHT22;9499;52.472;13.448;2023-04-24T12:32:41;18.70;1.00
18741;DHT22;9499;52.472;13.448;2023-04-24T12:35:08;18.80;99.90
18741;DHT22;9499;52.472;13.448;2023-04-24T12:37:35;18.70;99.90
18741;DHT22;9499;52.472;13.448;2023-04-24T12:40:05;18.50;1.00
18741;DHT22;9499;52.472;13.448;2023-04-24T12:42:33;18.30;51.50
18741;DHT22;9499;52.472;13.448;2023-04-24T12:45:02;18.20;1.00
18741;DHT22;9499;52.472;13.448;2023-04-24T12:47:31;18.20;1.00
18741;DHT22;9499;52.472;13.448;2023-04-24T12:49:58;18.20;1.00
18741;DHT22;9499;52.472;13.448;2023-04-24T12:52:26;18.10;1.00
18741;DHT22;9499;52.472;13.448;2023-04-24T12:54:53;18.00;1.00
18741;DHT22;9499;52.472;13.448;2023-04-24T12:57:22;18.00;99.90
18741;DHT22;9499;52.472;13.448;2023-04-24T12:59:48;18.00;99.90
18741;DHT22;9499;52.472;13.448;2023-04-24T13:02:15;18.00;99.90
18741;DHT22;9499;52.472;13.448;2023-04-24T13:04:44;18.10;99.90
18741;DHT22;9499;52.472;13.448;2023-04-24T13:07:11;18.10;99.90
18741;DHT22;9499;52.472;13.448;2023-04-24T13:09:37;18.30;99.90
18741;DHT22;9499;52.472;13.448;2023-04-24T13:12:04;18.50;99.90
18741;DHT22;9499;52.472;13.448;2023-04-24T13:14:33;18.90;99.90
18741;DHT22;9499;52.472;13.448;2023-04-24T13:16:59;19.00;63.70
18741;DHT22;9499;52.472;13.448;2023-04-24T13:19:26;18.80;28.80
18741;DHT22;9499;52.472;13.448;2023-04-24T13:21:54;18.80;23.40
18741;DHT22;9499;52.472;13.448;2023-04-24T13:24:22;18.50;5.90
18741;DHT22;9499;52.472;13.448;2023-04-24T13:26:50;18.50;24.30
18741;DHT22;9499;52.472;13.448;2023-04-24T13:29:16;18.60;1.00
18741;DHT22;9499;52.472;13.448;2023-04-24T13:31:44;18.50;1.00
18741;DHT22;9499;52.472;13.448;2023-04-24T13:34:12;18.60;1.00
18741;DHT22;9499;52.472;13.448;2023-04-24T13:36:39;19.00;1.00
18741;DHT22;9499;52.472;13.448;2023-04-24T13:39:06;19.10;1.00
18741;DHT22;9499;52.472;13.448;2023-04-24T13:41:33;19.00;1.00
18741;DHT22;9499;52.472;13.448;2023-04-24T13:44:00;19.00;1.00
18741;DHT22;9499;52.472;13.448;2023-04-24T13:46:27;19.30;1.00
18741;DHT22;9499;52.472;13.448;2023-04-24T13:48:55;19.40;1.00
18741;DHT22;9499;52.472;13.448;2023-04-24T13:51:22;19.40;1.00
18741;DHT22;9499;52.472;13.448;2023-04-24T13:53:48;19.50;1.00
18741;DHT22;9499;52.472;13.448;2023-04-24T13:56:15;19.50;1.00
18741;DHT22;9499;52.472;13.448;2023-04-24T13:58:41;19.30;1.00
18741;DHT22;9499;52.472;13.448;2023-04-24T14:01:08;19.30;1.00
18741;DHT22;9499;52.472;13.448;2023-04-24T14:03:35;19.20;1.00
18741;DHT22;9499;52.472;13.448;2023-04-24T14:06:04;19.10;1.00
18741;DHT22;9499;52.472;13.448;2023-04-24T14:08:31;19.10;1.00
18741;DHT22;9499;52.472;13.448;2023-04-24T14:10:58;19.20;1.00
18741;DHT22;9499;52.472;13.448;2023-04-24T14:13:24;19.40;1.00
18741;DHT22;9499;52.472;13.448;2023-04-24T14:15:51;19.30;1.00
18741;DHT22;9499;52.472;13.448;2023-04-24T14:18:17;19.30;1.00
18741;DHT22;9499;52.472;13.448;2023-04-24T14:20:44;19.00;1.00
18741;DHT22;9499;52.472;13.448;2023-04-24T14:23:12;18.80;1.00
18741;DHT22;9499;52.472;13.448;2023-04-24T14:25:38;18.60;1.00
18741;DHT22;9499;52.472;13.448;2023-04-24T14:28:05;18.40;1.00
18741;DHT22;9499;52.472;13.448;2023-04-24T14:30:32;18.30;1.00
18741;DHT22;9499;52.472;13.448;2023-04-24T14:32:58;18.30;1.00
18741;DHT22;9499;52.472;13.448;2023-04-24T14:35:25;18.60;1.00
18741;DHT22;9499;52.472;13.448;2023-04-24T14:37:54;18.60;1.00
18741;DHT22;9499;52.472;13.448;2023-04-24T14:40:22;18.60;1.00
18741;DHT22;9499;52.472;13.448;2023-04-24T14:42:48;18.40;1.00
18741;DHT22;9499;52.472;13.448;2023-04-24T14:45:15;18.20;1.00
18741;DHT22;9499;52.472;13.448;2023-04-24T14:47:42;18.30;1.00
18741;DHT22;9499;52.472;13.448;2023-04-24T14:50:09;18.50;1.00
18741;DHT22;9499;52.472;13.448;2023-04-24T14:52:36;18.40;1.00
18741;DHT22;9499;52.472;13.448;2023-04-24T14:55:03;18.50;1.00
18741;DHT22;9499;52.472;13.448;2023-04-24T14:57:31;18.70;1.00
18741;DHT22;9499;52.472;13.448;2023-04-24T14:59:57;19.10;1.00
18741;DHT22;9499;52.472;13.448;2023-04-24T15:02:24;19.30;1.00
18741;DHT22;9499;52.472;13.448;2023-04-24T15:04:50;19.40;1.00
18741;DHT22;9499;52.472;13.448;2023-04-24T15:07:17;19.10;1.00
18741;DHT22;9499;52.472;13.448;2023-04-24T15:09:43;18.70;1.00
18741;DHT22;9499;52.472;13.448;2023-04-24T15:12:12;18.50;1.00
18741;DHT22;9499;52.472;13.448;2023-04-24T15:14:40;18.20;1.00
18741;DHT22;9499;52.472;13.448;2023-04-24T15:17:06;17.90;1.00
18741;DHT22;9499;52.472;13.448;2023-04-24T15:19:33;17.70;1.00
18741;DHT22;9499;52.472;13.448;2023-04-24T15:21:59;17.70;1.00
18741;DHT22;9499;52.472;13.448;2023-04-24T15:24:26;17.60;1.00
18741;DHT22;9499;52.472;13.448;2023-04-24T15:26:53;18.00;1.00
18741;DHT22;9499;52.472;13.448;2023-04-24T15:29:20;18.40;1.00
18741;DHT22;9499;52.472;13.448;2023-04-24T15:31:48;18.70;1.00
18741;DHT22;9499;52.472;13.448;2023-04-24T15:34:14;18.70;1.00
18741;DHT22;9499;52.472;13.448;2023-04-24T15:36:41;18.30;1.00
18741;DHT22;9499;52.472;13.448;2023-04-24T15:39:07;18.00;1.00
18741;DHT22;9499;52.472;13.448;2023-04-24T15:41:35;17.70;1.00